sensor_id;sensor_type;location;lat;lon;timestamp;P1;durP1;ratioP1;P2;durP2;ratioP2
10347;SDS011;5220;43.192;23.284;2023-05-25T00:00:58;5.95;;;3.40;;
10347;SDS011;5220;43.192;23.284;2023-05-25T00:03:24;3.92;;;3.50;;
10347;SDS011;5220;43.192;23.284;2023-05-25T00:05:51;6.30;;;4.03;;
10347;SDS011;5220;43.192;23.284;2023-05-25T00:08:19;4.90;;;3.88;;
10347;SDS011;5220;43.192;23.284;2023-05-25T00:10:45;5.90;;;3.50;;
10347;SDS011;5220;43.192;23.284;2023-05-25T00:13:13;4.93;;;3.58;;
10347;SDS011;5220;43.192;23.284;2023-05-25T00:15:40;7.60;;;3.70;;
10347;SDS011;5220;43.192;23.284;2023-05-25T00:18:07;7.50;;;3.65;;
10347;SDS011;5220;43.192;23.284;2023-05-25T00:20:33;6.38;;;3.80;;
10347;SDS011;5220;43.192;23.284;2023-05-25T00:23:00;4.35;;;3.90;;
10347;SDS011;5220;43.192;23.284;2023-05-25T00:25:27;7.05;;;3.97;;
10347;SDS011;5220;43.192;23.284;2023-05-25T00:27:54;4.68;;;3.55;;
10347;SDS011;5220;43.192;23.284;2023-05-25T00:30:22;4.13;;;3.22;;
10347;SDS011;5220;43.192;23.284;2023-05-25T00:32:49;7.68;;;4.13;;
10347;SDS011;5220;43.192;23.284;2023-05-25T00:35:18;6.63;;;4.00;;
10347;SDS011;5220;43.192;23.284;2023-05-25T00:37:44;4.50;;;4.10;;
10347;SDS011;5220;43.192;23.284;2023-05-25T00:40:12;5.25;;;3.20;;
10347;SDS011;5220;43.192;23.284;2023-05-25T00:42:41;5.65;;;3.70;;
10347;SDS011;5220;43.192;23.284;2023-05-25T00:45:09;4.70;;;3.92;;
10347;SDS011;5220;43.192;23.284;2023-05-25T00:47:38;5.85;;;3.58;;
10347;SDS011;5220;43.192;23.284;2023-05-25T00:50:07;5.03;;;3.50;;
10347;SDS011;5220;43.192;23.284;2023-05-25T00:52:35;6.43;;;4.10;;
10347;SDS011;5220;43.192;23.284;2023-05-25T00:55:02;8.85;;;3.45;;
10347;SDS011;5220;43.192;23.284;2023-05-25T00:57:29;5.82;;;3.97;;
10347;SDS011;5220;43.192;23.284;2023-05-25T01:00:02;6.57;;;3.70;;
10347;SDS011;5220;43.192;23.284;2023-05-25T01:02:35;4.35;;;3.95;;
10347;SDS011;5220;43.192;23.284;2023-05-25T01:05:05;3.88;;;3.45;;
10347;SDS011;5220;43.192;23.284;2023-05-25T01:07:34;6.55;;;3.50;;
10347;SDS011;5220;43.192;23.284;2023-05-25T01:10:03;4.30;;;3.75;;
10347;SDS011;5220;43.192;23.284;2023-05-25T01:12:33;4.10;;;3.70;;
10347;SDS011;5220;43.192;23.284;2023-05-25T01:15:03;4.55;;;4.10;;
10347;SDS011;5220;43.192;23.284;2023-05-25T01:17:31;4.45;;;3.72;;
10347;SDS011;5220;43.192;23.284;2023-05-25T01:20:03;6.35;;;4.03;;
10347;SDS011;5220;43.192;23.284;2023-05-25T01:22:36;5.93;;;3.60;;
10347;SDS011;5220;43.192;23.284;2023-05-25T01:25:10;4.13;;;3.65;;
10347;SDS011;5220;43.192;23.284;2023-05-25T01:27:39;7.20;;;4.13;;
10347;SDS011;5220;43.192;23.284;2023-05-25T01:30:12;6.45;;;3.35;;
10347;SDS011;5220;43.192;23.284;2023-05-25T01:32:40;6.28;;;4.00;;
10347;SDS011;5220;43.192;23.284;2023-05-25T01:35:08;4.13;;;3.65;;
10347;SDS011;5220;43.192;23.284;2023-05-25T01:37:37;6.00;;;3.85;;
10347;SDS011;5220;43.192;23.284;2023-05-25T01:40:10;3.80;;;3.50;;
10347;SDS011;5220;43.192;23.284;2023-05-25T01:42:38;5.28;;;4.18;;
10347;SDS011;5220;43.192;23.284;2023-05-25T01:45:05;4.63;;;3.60;;
10347;SDS011;5220;43.192;23.284;2023-05-25T01:47:35;5.05;;;3.88;;
10347;SDS011;5220;43.192;23.284;2023-05-25T01:50:10;11.27;;;4.40;;
10347;SDS011;5220;43.192;23.284;2023-05-25T01:52:47;4.72;;;4.18;;
10347;SDS011;5220;43.192;23.284;2023-05-25T01:55:21;4.25;;;3.78;;
10347;SDS011;5220;43.192;23.284;2023-05-25T01:57:52;5.05;;;3.90;;
10347;SDS011;5220;43.192;23.284;2023-05-25T02:00:22;5.53;;;4.07;;
10347;SDS011;5220;43.192;23.284;2023-05-25T02:02:51;10.27;;;4.00;;
10347;SDS011;5220;43.192;23.284;2023-05-25T02:05:19;4.53;;;3.80;;
10347;SDS011;5220;43.192;23.284;2023-05-25T02:07:47;4.20;;;3.80;;
10347;SDS011;5220;43.192;23.284;2023-05-25T02:10:14;4.15;;;3.70;;
10347;SDS011;5220;43.192;23.284;2023-05-25T02:12:41;5.00;;;3.92;;
10347;SDS011;5220;43.192;23.284;2023-05-25T02:15:09;3.80;;;3.50;;
10347;SDS011;5220;43.192;23.284;2023-05-25T02:17:36;5.50;;;4.03;;
10347;SDS011;5220;43.192;23.284;2023-05-25T02:20:03;6.25;;;4.25;;
10347;SDS011;5220;43.192;23.284;2023-05-25T02:22:30;4.82;;;4.05;;
10347;SDS011;5220;43.192;23.284;2023-05-25T02:24:59;8.25;;;4.20;;
10347;SDS011;5220;43.192;23.284;2023-05-25T02:27:25;6.65;;;4.15;;
10347;SDS011;5220;43.192;23.284;2023-05-25T02:29:52;6.82;;;3.95;;
10347;SDS011;5220;43.192;23.284;2023-05-25T02:32:19;6.82;;;3.85;;
10347;SDS011;5220;43.192;23.284;2023-05-25T02:34:46;6.78;;;4.68;;
10347;SDS011;5220;43.192;23.284;2023-05-25T02:37:13;3.95;;;3.65;;
10347;SDS011;5220;43.192;23.284;2023-05-25T02:39:39;9.27;;;3.88;;
10347;SDS011;5220;43.192;23.284;2023-05-25T02:42:07;7.90;;;4.30;;
10347;SDS011;5220;43.192;23.284;2023-05-25T02:44:34;6.00;;;4.50;;
10347;SDS011;5220;43.192;23.284;2023-05-25T02:47:01;9.52;;;4.32;;
10347;SDS011;5220;43.192;23.284;2023-05-25T02:49:27;5.18;;;4.60;;
10347;SDS011;5220;43.192;23.284;2023-05-25T02:51:54;4.18;;;3.58;;
10347;SDS011;5220;43.192;23.284;2023-05-25T02:54:21;5.60;;;4.20;;
10347;SDS011;5220;43.192;23.284;2023-05-25T02:56:48;5.57;;;4.25;;
10347;SDS011;5220;43.192;23.284;2023-05-25T02:59:16;8.00;;;3.80;;
10347;SDS011;5220;43.192;23.284;2023-05-25T03:01:42;4.47;;;4.10;;
10347;SDS011;5220;43.192;23.284;2023-05-25T03:04:09;8.07;;;4.40;;
10347;SDS011;5220;43.192;23.284;2023-05-25T03:06:36;4.35;;;3.95;;
10347;SDS011;5220;43.192;23.284;2023-05-25T03:09:03;6.60;;;4.20;;
10347;SDS011;5220;43.192;23.284;2023-05-25T03:11:30;4.25;;;3.67;;
10347;SDS011;5220;43.192;23.284;2023-05-25T03:13:57;6.15;;;4.40;;
10347;SDS011;5220;43.192;23.284;2023-05-25T03:16:25;5.68;;;3.90;;
10347;SDS011;5220;43.192;23.284;2023-05-25T03:18:52;4.75;;;4.20;;
10347;SDS011;5220;43.192;23.284;2023-05-25T03:21:19;4.72;;;3.72;;
10347;SDS011;5220;43.192;23.284;2023-05-25T03:23:47;5.93;;;4.20;;
10347;SDS011;5220;43.192;23.284;2023-05-25T03:26:14;4.50;;;4.07;;
10347;SDS011;5220;43.192;23.284;2023-05-25T03:28:41;6.95;;;4.38;;
10347;SDS011;5220;43.192;23.284;2023-05-25T03:31:08;4.95;;;4.55;;
10347;SDS011;5220;43.192;23.284;2023-05-25T03:33:37;5.40;;;4.22;;
10347;SDS011;5220;43.192;23.284;2023-05-25T03:36:05;4.45;;;3.90;;
10347;SDS011;5220;43.192;23.284;2023-05-25T03:38:32;7.28;;;4.10;;
10347;SDS011;5220;43.192;23.284;2023-05-25T03:40:59;6.95;;;4.40;;
10347;SDS011;5220;43.192;23.284;2023-05-25T03:43:26;4.90;;;4.05;;
10347;SDS011;5220;43.192;23.284;2023-05-25T03:45:52;4.40;;;3.92;;
10347;SDS011;5220;43.192;23.284;2023-05-25T03:48:19;6.45;;;4.30;;
10347;SDS011;5220;43.192;23.284;2023-05-25T03:50:47;9.73;;;4.47;;
10347;SDS011;5220;43.192;23.284;2023-05-25T03:53:14;9.20;;;4.40;;
10347;SDS011;5220;43.192;23.284;2023-05-25T03:55:41;5.40;;;4.03;;
10347;SDS011;5220;43.192;23.284;2023-05-25T03:58:08;4.65;;;4.13;;
10347;SDS011;5220;43.192;23.284;2023-05-25T04:00:35;4.57;;;4.18;;
10347;SDS011;5220;43.192;23.284;2023-05-25T04:03:01;6.72;;;4.85;;
10347;SDS011;5220;43.192;23.284;2023-05-25T04:05:28;5.47;;;4.47;;
10347;SDS011;5220;43.192;23.284;2023-05-25T04:07:56;4.13;;;3.72;;
10347;SDS011;5220;43.192;23.284;2023-05-25T04:10:23;5.22;;;4.07;;
10347;SDS011;5220;43.192;23.284;2023-05-25T04:12:50;8.18;;;4.43;;
10347;SDS011;5220;43.192;23.284;2023-05-25T04:15:20;6.03;;;3.85;;
10347;SDS011;5220;43.192;23.284;2023-05-25T04:17:47;5.60;;;4.20;;
10347;SDS011;5220;43.192;23.284;2023-05-25T04:20:14;4.53;;;4.13;;
10347;SDS011;5220;43.192;23.284;2023-05-25T04:22:40;5.25;;;4.10;;
10347;SDS011;5220;43.192;23.284;2023-05-25T04:25:09;5.30;;;3.78;;
10347;SDS011;5220;43.192;23.284;2023-05-25T04:27:36;4.38;;;3.92;;
10347;SDS011;5220;43.192;23.284;2023-05-25T04:30:03;6.30;;;3.90;;
10347;SDS011;5220;43.192;23.284;2023-05-25T04:32:30;5.30;;;4.25;;
10347;SDS011;5220;43.192;23.284;2023-05-25T04:34:56;4.10;;;3.80;;
10347;SDS011;5220;43.192;23.284;2023-05-25T04:37:24;4.88;;;3.95;;
10347;SDS011;5220;43.192;23.284;2023-05-25T04:39:51;4.95;;;3.72;;
10347;SDS011;5220;43.192;23.284;2023-05-25T04:42:19;5.93;;;3.60;;
10347;SDS011;5220;43.192;23.284;2023-05-25T04:44:48;3.95;;;3.55;;
10347;SDS011;5220;43.192;23.284;2023-05-25T04:47:15;5.57;;;3.50;;
10347;SDS011;5220;43.192;23.284;2023-05-25T04:49:43;6.43;;;3.92;;
10347;SDS011;5220;43.192;23.284;2023-05-25T04:52:10;4.60;;;4.00;;
10347;SDS011;5220;43.192;23.284;2023-05-25T04:54:36;4.78;;;3.45;;
10347;SDS011;5220;43.192;23.284;2023-05-25T04:57:03;8.52;;;4.20;;
10347;SDS011;5220;43.192;23.284;2023-05-25T04:59:31;10.27;;;3.90;;
10347;SDS011;5220;43.192;23.284;2023-05-25T05:01:58;4.50;;;4.10;;
10347;SDS011;5220;43.192;23.284;2023-05-25T05:04:24;7.57;;;5.20;;
10347;SDS011;5220;43.192;23.284;2023-05-25T05:06:51;9.10;;;5.63;;
10347;SDS011;5220;43.192;23.284;2023-05-25T05:09:18;11.27;;;5.50;;
10347;SDS011;5220;43.192;23.284;2023-05-25T05:11:45;7.72;;;5.15;;
10347;SDS011;5220;43.192;23.284;2023-05-25T05:14:12;6.13;;;5.30;;
10347;SDS011;5220;43.192;23.284;2023-05-25T05:16:40;5.72;;;4.30;;
10347;SDS011;5220;43.192;23.284;2023-05-25T05:19:06;7.90;;;4.63;;
10347;SDS011;5220;43.192;23.284;2023-05-25T05:21:33;5.07;;;4.57;;
10347;SDS011;5220;43.192;23.284;2023-05-25T05:24:00;7.78;;;4.57;;
10347;SDS011;5220;43.192;23.284;2023-05-25T05:26:26;7.28;;;4.85;;
10347;SDS011;5220;43.192;23.284;2023-05-25T05:28:53;9.93;;;5.30;;
10347;SDS011;5220;43.192;23.284;2023-05-25T05:31:21;8.00;;;4.97;;
10347;SDS011;5220;43.192;23.284;2023-05-25T05:33:49;5.65;;;5.00;;
10347;SDS011;5220;43.192;23.284;2023-05-25T05:36:16;5.50;;;4.90;;
10347;SDS011;5220;43.192;23.284;2023-05-25T05:38:43;8.60;;;5.25;;
10347;SDS011;5220;43.192;23.284;2023-05-25T05:41:10;5.60;;;5.00;;
10347;SDS011;5220;43.192;23.284;2023-05-25T05:43:38;6.18;;;4.60;;
10347;SDS011;5220;43.192;23.284;2023-05-25T05:46:06;5.72;;;4.32;;
10347;SDS011;5220;43.192;23.284;2023-05-25T05:48:34;4.97;;;4.20;;
10347;SDS011;5220;43.192;23.284;2023-05-25T05:51:02;6.45;;;4.20;;
10347;SDS011;5220;43.192;23.284;2023-05-25T05:53:29;5.18;;;4.50;;
10347;SDS011;5220;43.192;23.284;2023-05-25T05:55:56;6.65;;;5.10;;
10347;SDS011;5220;43.192;23.284;2023-05-25T05:58:24;6.13;;;5.28;;
10347;SDS011;5220;43.192;23.284;2023-05-25T06:00:51;7.20;;;5.22;;
10347;SDS011;5220;43.192;23.284;2023-05-25T06:03:19;6.68;;;4.22;;
10347;SDS011;5220;43.192;23.284;2023-05-25T06:05:46;9.60;;;4.20;;
10347;SDS011;5220;43.192;23.284;2023-05-25T06:08:14;7.80;;;4.47;;
10347;SDS011;5220;43.192;23.284;2023-05-25T06:10:41;6.78;;;4.22;;
10347;SDS011;5220;43.192;23.284;2023-05-25T06:13:07;5.85;;;4.30;;
10347;SDS011;5220;43.192;23.284;2023-05-25T06:15:34;6.00;;;4.15;;
10347;SDS011;5220;43.192;23.284;2023-05-25T06:18:01;6.80;;;4.70;;
10347;SDS011;5220;43.192;23.284;2023-05-25T06:20:28;4.78;;;4.38;;
10347;SDS011;5220;43.192;23.284;2023-05-25T06:22:55;7.07;;;4.70;;
10347;SDS011;5220;43.192;23.284;2023-05-25T06:25:23;6.95;;;4.85;;
10347;SDS011;5220;43.192;23.284;2023-05-25T06:27:50;5.18;;;4.78;;
10347;SDS011;5220;43.192;23.284;2023-05-25T06:30:17;7.60;;;4.70;;
10347;SDS011;5220;43.192;23.284;2023-05-25T06:32:43;5.32;;;4.82;;
10347;SDS011;5220;43.192;23.284;2023-05-25T06:35:10;5.20;;;4.05;;
10347;SDS011;5220;43.192;23.284;2023-05-25T06:37:43;7.28;;;4.82;;
10347;SDS011;5220;43.192;23.284;2023-05-25T06:40:11;4.85;;;4.35;;
10347;SDS011;5220;43.192;23.284;2023-05-25T06:42:40;4.47;;;4.07;;
10347;SDS011;5220;43.192;23.284;2023-05-25T06:45:07;4.43;;;4.03;;
10347;SDS011;5220;43.192;23.284;2023-05-25T06:47:34;4.28;;;3.97;;
10347;SDS011;5220;43.192;23.284;2023-05-25T06:50:01;5.60;;;3.38;;
10347;SDS011;5220;43.192;23.284;2023-05-25T06:52:28;5.30;;;4.18;;
10347;SDS011;5220;43.192;23.284;2023-05-25T06:54:55;7.13;;;4.28;;
10347;SDS011;5220;43.192;23.284;2023-05-25T06:57:22;5.22;;;4.20;;
10347;SDS011;5220;43.192;23.284;2023-05-25T06:59:51;5.32;;;4.18;;
10347;SDS011;5220;43.192;23.284;2023-05-25T07:02:18;6.90;;;3.97;;
10347;SDS011;5220;43.192;23.284;2023-05-25T07:04:45;4.93;;;4.30;;
10347;SDS011;5220;43.192;23.284;2023-05-25T07:07:12;4.75;;;4.28;;
10347;SDS011;5220;43.192;23.284;2023-05-25T07:09:39;7.68;;;4.70;;
10347;SDS011;5220;43.192;23.284;2023-05-25T07:12:06;6.20;;;4.85;;
10347;SDS011;5220;43.192;23.284;2023-05-25T07:14:35;5.20;;;4.70;;
10347;SDS011;5220;43.192;23.284;2023-05-25T07:17:03;5.95;;;5.30;;
10347;SDS011;5220;43.192;23.284;2023-05-25T07:19:31;8.15;;;4.72;;
10347;SDS011;5220;43.192;23.284;2023-05-25T07:21:58;5.75;;;5.20;;
10347;SDS011;5220;43.192;23.284;2023-05-25T07:24:25;5.65;;;4.72;;
10347;SDS011;5220;43.192;23.284;2023-05-25T07:26:52;8.27;;;4.50;;
10347;SDS011;5220;43.192;23.284;2023-05-25T07:29:19;6.20;;;5.60;;
10347;SDS011;5220;43.192;23.284;2023-05-25T07:31:46;9.07;;;5.40;;
10347;SDS011;5220;43.192;23.284;2023-05-25T07:34:16;8.75;;;5.00;;
10347;SDS011;5220;43.192;23.284;2023-05-25T07:36:44;5.53;;;4.32;;
10347;SDS011;5220;43.192;23.284;2023-05-25T07:39:11;6.07;;;5.00;;
10347;SDS011;5220;43.192;23.284;2023-05-25T07:41:39;6.88;;;4.45;;
10347;SDS011;5220;43.192;23.284;2023-05-25T07:44:06;7.03;;;4.15;;
10347;SDS011;5220;43.192;23.284;2023-05-25T07:46:33;7.30;;;4.00;;
10347;SDS011;5220;43.192;23.284;2023-05-25T07:49:00;5.70;;;4.35;;
10347;SDS011;5220;43.192;23.284;2023-05-25T07:51:29;5.38;;;4.60;;
10347;SDS011;5220;43.192;23.284;2023-05-25T07:53:56;5.97;;;5.03;;
10347;SDS011;5220;43.192;23.284;2023-05-25T07:56:24;5.75;;;5.03;;
10347;SDS011;5220;43.192;23.284;2023-05-25T07:58:51;4.55;;;4.10;;
10347;SDS011;5220;43.192;23.284;2023-05-25T08:01:18;5.38;;;4.88;;
10347;SDS011;5220;43.192;23.284;2023-05-25T08:03:45;4.72;;;3.42;;
10347;SDS011;5220;43.192;23.284;2023-05-25T08:06:12;4.90;;;4.50;;
10347;SDS011;5220;43.192;23.284;2023-05-25T08:08:40;7.28;;;6.65;;
10347;SDS011;5220;43.192;23.284;2023-05-25T08:11:09;4.10;;;3.72;;
10347;SDS011;5220;43.192;23.284;2023-05-25T08:13:36;5.25;;;4.15;;
10347;SDS011;5220;43.192;23.284;2023-05-25T08:16:03;5.22;;;4.72;;
10347;SDS011;5220;43.192;23.284;2023-05-25T08:18:30;4.10;;;3.45;;
10347;SDS011;5220;43.192;23.284;2023-05-25T08:20:57;4.60;;;3.90;;
10347;SDS011;5220;43.192;23.284;2023-05-25T08:23:25;6.50;;;5.88;;
10347;SDS011;5220;43.192;23.284;2023-05-25T08:25:53;10.00;;;8.45;;
10347;SDS011;5220;43.192;23.284;2023-05-25T08:28:20;4.00;;;3.70;;
10347;SDS011;5220;43.192;23.284;2023-05-25T08:30:47;5.07;;;3.83;;
10347;SDS011;5220;43.192;23.284;2023-05-25T08:33:14;4.10;;;3.70;;
10347;SDS011;5220;43.192;23.284;2023-05-25T08:35:41;4.97;;;4.57;;
10347;SDS011;5220;43.192;23.284;2023-05-25T08:38:08;4.55;;;4.13;;
10347;SDS011;5220;43.192;23.284;2023-05-25T08:40:35;6.15;;;5.55;;
10347;SDS011;5220;43.192;23.284;2023-05-25T08:43:08;6.80;;;6.15;;
10347;SDS011;5220;43.192;23.284;2023-05-25T08:45:35;5.35;;;4.13;;
10347;SDS011;5220;43.192;23.284;2023-05-25T08:48:02;4.97;;;4.47;;
10347;SDS011;5220;43.192;23.284;2023-05-25T08:50:34;5.55;;;4.38;;
10347;SDS011;5220;43.192;23.284;2023-05-25T08:53:04;6.32;;;4.30;;
10347;SDS011;5220;43.192;23.284;2023-05-25T08:55:37;4.55;;;4.15;;
10347;SDS011;5220;43.192;23.284;2023-05-25T08:58:09;7.25;;;4.05;;
10347;SDS011;5220;43.192;23.284;2023-05-25T09:00:41;4.57;;;4.18;;
10347;SDS011;5220;43.192;23.284;2023-05-25T09:03:23;4.72;;;3.88;;
10347;SDS011;5220;43.192;23.284;2023-05-25T09:05:50;4.30;;;3.90;;
10347;SDS011;5220;43.192;23.284;2023-05-25T09:08:17;5.80;;;4.43;;
10347;SDS011;5220;43.192;23.284;2023-05-25T09:10:45;7.60;;;3.90;;
10347;SDS011;5220;43.192;23.284;2023-05-25T09:13:15;4.85;;;4.35;;
10347;SDS011;5220;43.192;23.284;2023-05-25T09:15:43;7.20;;;3.90;;
10347;SDS011;5220;43.192;23.284;2023-05-25T09:18:10;4.47;;;3.58;;
10347;SDS011;5220;43.192;23.284;2023-05-25T09:20:36;4.50;;;3.95;;
10347;SDS011;5220;43.192;23.284;2023-05-25T09:23:04;4.25;;;3.85;;
10347;SDS011;5220;43.192;23.284;2023-05-25T09:25:31;4.78;;;4.30;;
10347;SDS011;5220;43.192;23.284;2023-05-25T09:27:59;5.78;;;4.90;;
10347;SDS011;5220;43.192;23.284;2023-05-25T09:30:27;4.82;;;4.43;;
10347;SDS011;5220;43.192;23.284;2023-05-25T09:33:07;5.53;;;5.00;;
10347;SDS011;5220;43.192;23.284;2023-05-25T09:35:36;4.78;;;4.38;;
10347;SDS011;5220;43.192;23.284;2023-05-25T09:38:04;5.18;;;4.68;;
10347;SDS011;5220;43.192;23.284;2023-05-25T09:40:32;4.85;;;4.45;;
10347;SDS011;5220;43.192;23.284;2023-05-25T09:43:00;5.60;;;4.22;;
10347;SDS011;5220;43.192;23.284;2023-05-25T09:45:29;9.55;;;6.78;;
10347;SDS011;5220;43.192;23.284;2023-05-25T09:47:56;4.10;;;3.70;;
10347;SDS011;5220;43.192;23.284;2023-05-25T09:50:25;7.25;;;6.63;;
10347;SDS011;5220;43.192;23.284;2023-05-25T09:52:55;8.88;;;4.70;;
10347;SDS011;5220;43.192;23.284;2023-05-25T09:55:23;5.43;;;4.60;;
10347;SDS011;5220;43.192;23.284;2023-05-25T09:57:52;4.40;;;4.00;;
10347;SDS011;5220;43.192;23.284;2023-05-25T10:00:20;5.20;;;4.72;;
10347;SDS011;5220;43.192;23.284;2023-05-25T10:02:49;4.75;;;4.35;;
10347;SDS011;5220;43.192;23.284;2023-05-25T10:05:16;4.78;;;4.38;;
10347;SDS011;5220;43.192;23.284;2023-05-25T10:07:43;4.22;;;3.92;;
10347;SDS011;5220;43.192;23.284;2023-05-25T10:10:12;4.05;;;3.75;;
10347;SDS011;5220;43.192;23.284;2023-05-25T10:12:40;5.50;;;4.07;;
10347;SDS011;5220;43.192;23.284;2023-05-25T10:15:10;6.18;;;3.75;;
10347;SDS011;5220;43.192;23.284;2023-05-25T10:17:39;3.63;;;3.20;;
10347;SDS011;5220;43.192;23.284;2023-05-25T10:20:11;7.97;;;3.45;;
10347;SDS011;5220;43.192;23.284;2023-05-25T10:22:43;4.68;;;3.40;;
10347;SDS011;5220;43.192;23.284;2023-05-25T10:25:15;4.93;;;3.78;;
10347;SDS011;5220;43.192;23.284;2023-05-25T10:27:50;4.65;;;3.90;;
10347;SDS011;5220;43.192;23.284;2023-05-25T10:30:22;6.88;;;3.78;;
10347;SDS011;5220;43.192;23.284;2023-05-25T10:32:51;4.93;;;3.85;;
10347;SDS011;5220;43.192;23.284;2023-05-25T10:35:21;4.53;;;3.45;;
10347;SDS011;5220;43.192;23.284;2023-05-25T10:37:50;7.22;;;3.40;;
10347;SDS011;5220;43.192;23.284;2023-05-25T10:40:18;3.50;;;3.00;;
10347;SDS011;5220;43.192;23.284;2023-05-25T10:42:48;5.75;;;3.72;;
10347;SDS011;5220;43.192;23.284;2023-05-25T10:45:16;6.25;;;3.00;;
10347;SDS011;5220;43.192;23.284;2023-05-25T10:47:44;5.43;;;2.83;;
10347;SDS011;5220;43.192;23.284;2023-05-25T10:50:18;5.00;;;3.10;;
10347;SDS011;5220;43.192;23.284;2023-05-25T10:52:58;3.55;;;3.25;;
10347;SDS011;5220;43.192;23.284;2023-05-25T10:55:26;4.10;;;3.28;;
10347;SDS011;5220;43.192;23.284;2023-05-25T10:58:06;3.25;;;3.00;;
10347;SDS011;5220;43.192;23.284;2023-05-25T11:00:34;3.70;;;3.10;;
10347;SDS011;5220;43.192;23.284;2023-05-25T11:03:01;3.65;;;3.33;;
10347;SDS011;5220;43.192;23.284;2023-05-25T11:05:33;5.65;;;2.95;;
10347;SDS011;5220;43.192;23.284;2023-05-25T11:08:03;2.35;;;2.15;;
10347;SDS011;5220;43.192;23.284;2023-05-25T11:13:21;2.50;;;2.25;;
10347;SDS011;5220;43.192;23.284;2023-05-25T11:18:37;2.53;;;2.33;;
10347;SDS011;5220;43.192;23.284;2023-05-25T11:21:14;2.38;;;2.17;;
10347;SDS011;5220;43.192;23.284;2023-05-25T11:23:55;3.70;;;2.40;;
10347;SDS011;5220;43.192;23.284;2023-05-25T11:26:23;2.50;;;2.30;;
10347;SDS011;5220;43.192;23.284;2023-05-25T11:28:51;2.38;;;2.17;;
10347;SDS011;5220;43.192;23.284;2023-05-25T11:31:19;7.32;;;2.50;;
10347;SDS011;5220;43.192;23.284;2023-05-25T11:33:48;2.30;;;2.10;;
10347;SDS011;5220;43.192;23.284;2023-05-25T11:36:23;2.33;;;2.15;;
10347;SDS011;5220;43.192;23.284;2023-05-25T11:38:51;3.38;;;2.22;;
10347;SDS011;5220;43.192;23.284;2023-05-25T11:41:19;2.50;;;2.30;;
10347;SDS011;5220;43.192;23.284;2023-05-25T11:43:47;3.90;;;2.55;;
10347;SDS011;5220;43.192;23.284;2023-05-25T11:46:15;3.15;;;2.22;;
10347;SDS011;5220;43.192;23.284;2023-05-25T11:48:44;2.47;;;2.28;;
10347;SDS011;5220;43.192;23.284;2023-05-25T11:51:16;2.35;;;2.13;;
10347;SDS011;5220;43.192;23.284;2023-05-25T11:53:45;2.63;;;2.15;;
10347;SDS011;5220;43.192;23.284;2023-05-25T11:56:13;3.00;;;2.30;;
10347;SDS011;5220;43.192;23.284;2023-05-25T11:58:41;3.03;;;2.33;;
10347;SDS011;5220;43.192;23.284;2023-05-25T12:01:16;2.40;;;2.15;;
10347;SDS011;5220;43.192;23.284;2023-05-25T12:03:45;2.90;;;2.25;;
10347;SDS011;5220;43.192;23.284;2023-05-25T12:09:02;2.88;;;2.22;;
10347;SDS011;5220;43.192;23.284;2023-05-25T12:11:31;4.68;;;2.95;;
10347;SDS011;5220;43.192;23.284;2023-05-25T12:13:59;2.50;;;2.30;;
10347;SDS011;5220;43.192;23.284;2023-05-25T12:16:28;4.10;;;2.33;;
10347;SDS011;5220;43.192;23.284;2023-05-25T12:18:56;4.15;;;2.65;;
10347;SDS011;5220;43.192;23.284;2023-05-25T12:21:24;3.92;;;2.15;;
10347;SDS011;5220;43.192;23.284;2023-05-25T12:23:51;4.05;;;2.28;;
10347;SDS011;5220;43.192;23.284;2023-05-25T12:26:21;2.80;;;2.60;;
10347;SDS011;5220;43.192;23.284;2023-05-25T12:28:58;3.55;;;2.90;;
10347;SDS011;5220;43.192;23.284;2023-05-25T12:31:26;2.90;;;2.63;;
10347;SDS011;5220;43.192;23.284;2023-05-25T12:34:01;4.10;;;2.38;;
10347;SDS011;5220;43.192;23.284;2023-05-25T12:36:41;3.50;;;2.90;;
10347;SDS011;5220;43.192;23.284;2023-05-25T12:39:11;3.20;;;2.85;;
10347;SDS011;5220;43.192;23.284;2023-05-25T12:41:47;2.83;;;2.63;;
10347;SDS011;5220;43.192;23.284;2023-05-25T12:44:17;3.25;;;2.60;;
10347;SDS011;5220;43.192;23.284;2023-05-25T12:46:46;3.60;;;2.33;;
10347;SDS011;5220;43.192;23.284;2023-05-25T12:49:23;4.40;;;2.50;;
10347;SDS011;5220;43.192;23.284;2023-05-25T12:51:55;4.43;;;2.92;;
10347;SDS011;5220;43.192;23.284;2023-05-25T12:54:32;2.70;;;2.50;;
10347;SDS011;5220;43.192;23.284;2023-05-25T12:57:06;3.67;;;2.47;;
10347;SDS011;5220;43.192;23.284;2023-05-25T12:59:34;3.22;;;2.40;;
10347;SDS011;5220;43.192;23.284;2023-05-25T13:02:02;2.75;;;2.55;;
10347;SDS011;5220;43.192;23.284;2023-05-25T13:04:31;2.67;;;2.45;;
10347;SDS011;5220;43.192;23.284;2023-05-25T13:06:59;2.75;;;2.53;;
10347;SDS011;5220;43.192;23.284;2023-05-25T13:09:26;3.10;;;2.80;;
10347;SDS011;5220;43.192;23.284;2023-05-25T13:11:54;3.85;;;2.83;;
10347;SDS011;5220;43.192;23.284;2023-05-25T13:14:23;3.65;;;2.40;;
10347;SDS011;5220;43.192;23.284;2023-05-25T13:16:51;2.47;;;2.28;;
10347;SDS011;5220;43.192;23.284;2023-05-25T13:19:20;2.90;;;2.70;;
10347;SDS011;5220;43.192;23.284;2023-05-25T13:21:48;3.17;;;2.88;;
10347;SDS011;5220;43.192;23.284;2023-05-25T13:24:16;6.82;;;2.70;;
10347;SDS011;5220;43.192;23.284;2023-05-25T13:26:43;3.67;;;2.25;;
10347;SDS011;5220;43.192;23.284;2023-05-25T13:29:11;3.30;;;2.90;;
10347;SDS011;5220;43.192;23.284;2023-05-25T13:31:39;4.53;;;2.47;;
10347;SDS011;5220;43.192;23.284;2023-05-25T13:34:06;4.32;;;2.42;;
10347;SDS011;5220;43.192;23.284;2023-05-25T13:36:33;13.57;;;3.00;;
10347;SDS011;5220;43.192;23.284;2023-05-25T13:39:00;2.97;;;2.67;;
10347;SDS011;5220;43.192;23.284;2023-05-25T13:41:29;2.80;;;2.55;;
10347;SDS011;5220;43.192;23.284;2023-05-25T13:43:56;2.30;;;2.13;;
10347;SDS011;5220;43.192;23.284;2023-05-25T13:46:23;2.35;;;2.15;;
10347;SDS011;5220;43.192;23.284;2023-05-25T13:48:51;2.85;;;2.10;;
10347;SDS011;5220;43.192;23.284;2023-05-25T13:51:18;4.43;;;2.30;;
10347;SDS011;5220;43.192;23.284;2023-05-25T13:53:45;2.53;;;2.33;;
10347;SDS011;5220;43.192;23.284;2023-05-25T13:56:13;2.83;;;2.05;;
10347;SDS011;5220;43.192;23.284;2023-05-25T13:58:40;2.45;;;2.10;;
10347;SDS011;5220;43.192;23.284;2023-05-25T14:01:07;4.45;;;2.28;;
10347;SDS011;5220;43.192;23.284;2023-05-25T14:03:34;3.40;;;2.20;;
10347;SDS011;5220;43.192;23.284;2023-05-25T14:06:03;2.70;;;2.03;;
10347;SDS011;5220;43.192;23.284;2023-05-25T14:08:31;2.67;;;2.13;;
10347;SDS011;5220;43.192;23.284;2023-05-25T14:10:57;3.00;;;2.50;;
10347;SDS011;5220;43.192;23.284;2023-05-25T14:13:24;3.80;;;2.40;;
10347;SDS011;5220;43.192;23.284;2023-05-25T14:15:51;4.10;;;2.03;;
10347;SDS011;5220;43.192;23.284;2023-05-25T14:18:18;2.75;;;2.50;;
10347;SDS011;5220;43.192;23.284;2023-05-25T14:20:44;3.45;;;2.25;;
10347;SDS011;5220;43.192;23.284;2023-05-25T14:23:13;3.42;;;2.10;;
10347;SDS011;5220;43.192;23.284;2023-05-25T14:25:42;2.67;;;2.13;;
10347;SDS011;5220;43.192;23.284;2023-05-25T14:28:08;2.35;;;2.15;;
10347;SDS011;5220;43.192;23.284;2023-05-25T14:30:35;2.22;;;2.10;;
10347;SDS011;5220;43.192;23.284;2023-05-25T14:33:02;2.20;;;2.10;;
10347;SDS011;5220;43.192;23.284;2023-05-25T14:35:28;2.83;;;2.15;;
10347;SDS011;5220;43.192;23.284;2023-05-25T14:37:55;2.35;;;2.13;;
10347;SDS011;5220;43.192;23.284;2023-05-25T14:40:23;1.92;;;1.83;;
10347;SDS011;5220;43.192;23.284;2023-05-25T14:42:50;2.40;;;2.20;;
10347;SDS011;5220;43.192;23.284;2023-05-25T14:45:19;2.63;;;2.42;;
10347;SDS011;5220;43.192;23.284;2023-05-25T14:47:46;2.95;;;2.10;;
10347;SDS011;5220;43.192;23.284;2023-05-25T14:50:12;2.67;;;2.20;;
10347;SDS011;5220;43.192;23.284;2023-05-25T14:52:39;2.50;;;2.30;;
10347;SDS011;5220;43.192;23.284;2023-05-25T14:55:06;2.70;;;2.50;;
10347;SDS011;5220;43.192;23.284;2023-05-25T14:57:35;2.10;;;2.00;;
10347;SDS011;5220;43.192;23.284;2023-05-25T15:00:02;3.10;;;2.42;;
10347;SDS011;5220;43.192;23.284;2023-05-25T15:02:29;2.42;;;2.22;;